createdAt,value
2023-05-04T00:02:02.274Z,9.20
2023-05-04T00:04:28.592Z,12.25
2023-05-04T00:06:54.897Z,17.85
2023-05-04T00:09:21.301Z,21.98
2023-05-04T00:11:47.608Z,22.38
2023-05-04T00:14:13.919Z,25.63
2023-05-04T00:16:40.386Z,16.42
2023-05-04T00:19:07.133Z,15.50
2023-05-04T00:21:33.496Z,18.50
2023-05-04T00:23:59.874Z,13.93
2023-05-04T00:26:26.691Z,28.90
2023-05-04T00:28:53.001Z,17.33
2023-05-04T00:31:19.630Z,17.63
2023-05-04T00:33:46.175Z,42.97
2023-05-04T00:36:13.957Z,16.50
2023-05-04T00:38:54.103Z,12.70
2023-05-04T00:41:20.762Z,9.80
2023-05-04T00:43:47.386Z,11.32
2023-05-04T00:46:14.088Z,14.38
2023-05-04T00:48:45.967Z,9.65
2023-05-04T00:51:12.854Z,9.52
2023-05-04T00:53:39.386Z,11.95
2023-05-04T00:56:06.633Z,14.52
2023-05-04T00:58:33.269Z,10.40
2023-05-04T01:01:00.032Z,9.40
2023-05-04T01:03:27.154Z,10.65
2023-05-04T01:06:01.468Z,9.07
2023-05-04T01:08:31.049Z,10.85
2023-05-04T01:11:02.886Z,11.07
2023-05-04T01:13:30.776Z,9.57
2023-05-04T01:15:57.638Z,16.00
2023-05-04T01:18:24.111Z,13.25
2023-05-04T01:20:50.863Z,15.07
2023-05-04T01:23:17.346Z,8.85
2023-05-04T01:25:46.434Z,31.60
2023-05-04T01:28:17.461Z,29.90
2023-05-04T01:30:44.369Z,24.77
2023-05-04T01:33:11.233Z,24.63
2023-05-04T01:35:37.626Z,25.92
2023-05-04T01:38:04.169Z,23.95
2023-05-04T01:40:30.669Z,34.50
2023-05-04T01:42:57.156Z,18.45
2023-05-04T01:45:23.650Z,43.33
2023-05-04T01:47:50.116Z,28.80
2023-05-04T01:50:16.746Z,36.38
2023-05-04T01:52:43.120Z,48.65
2023-05-04T01:55:09.698Z,31.60
2023-05-04T01:57:36.100Z,20.70
2023-05-04T02:00:06.238Z,45.38
2023-05-04T02:02:32.862Z,28.95
2023-05-04T02:04:59.412Z,20.17
2023-05-04T02:07:25.922Z,43.13
2023-05-04T02:09:52.326Z,46.53
2023-05-04T02:12:19.051Z,37.85
2023-05-04T02:14:45.376Z,50.80
2023-05-04T02:17:11.857Z,53.20
2023-05-04T02:19:38.274Z,38.35
2023-05-04T02:22:04.631Z,50.78
2023-05-04T02:24:31.042Z,27.17
2023-05-04T02:26:57.351Z,46.88
2023-05-04T02:29:23.781Z,26.25
2023-05-04T02:31:50.190Z,24.95
2023-05-04T02:34:16.791Z,17.42
2023-05-04T02:36:43.253Z,25.67
2023-05-04T02:39:09.652Z,44.63
2023-05-04T02:41:36.101Z,27.40
2023-05-04T02:44:02.488Z,13.90
2023-05-04T02:46:28.998Z,11.75
2023-05-04T02:48:55.481Z,11.40
2023-05-04T02:51:21.896Z,14.73
2023-05-04T02:53:48.292Z,11.70
2023-05-04T02:56:14.728Z,15.60
2023-05-04T02:58:41.120Z,11.40
2023-05-04T03:01:07.649Z,11.05
2023-05-04T03:03:34.209Z,12.63
2023-05-04T03:06:01.176Z,13.40
2023-05-04T03:08:29.569Z,10.13
2023-05-04T03:10:56.085Z,10.02
2023-05-04T03:13:22.475Z,15.70
2023-05-04T03:15:49.400Z,10.73
2023-05-04T03:18:15.843Z,11.30
2023-05-04T03:20:42.333Z,15.73
2023-05-04T03:23:08.893Z,12.70
2023-05-04T03:25:35.478Z,16.33
2023-05-04T03:28:01.988Z,13.15
2023-05-04T03:30:28.340Z,12.90
2023-05-04T03:32:54.886Z,12.90
2023-05-04T03:35:24.909Z,13.43
2023-05-04T03:37:54.503Z,15.02
2023-05-04T03:40:23.240Z,14.45
2023-05-04T03:42:49.991Z,17.25
2023-05-04T03:45:16.433Z,11.13
2023-05-04T03:47:42.816Z,16.05
2023-05-04T03:50:09.931Z,12.85
2023-05-04T03:52:36.477Z,17.23
2023-05-04T03:55:02.931Z,8.88
2023-05-04T03:57:29.282Z,9.43
2023-05-04T04:00:01.762Z,11.18
2023-05-04T04:02:28.386Z,6.85
2023-05-04T04:04:54.959Z,9.70
2023-05-04T04:07:21.477Z,13.88
2023-05-04T04:09:48.114Z,17.23
2023-05-04T04:12:16.161Z,6.25
2023-05-04T04:14:42.530Z,7.55
2023-05-04T04:17:08.876Z,7.28
2023-05-04T04:19:35.264Z,12.70
2023-05-04T04:22:07.408Z,6.85
2023-05-04T04:24:33.803Z,7.67
2023-05-04T04:27:00.379Z,10.23
2023-05-04T04:29:27.248Z,7.50
2023-05-04T04:31:53.685Z,9.10
2023-05-04T04:34:20.096Z,9.25
2023-05-04T04:36:46.577Z,14.23
2023-05-04T04:39:13.050Z,9.38
2023-05-04T04:41:39.499Z,7.82
2023-05-04T04:44:05.964Z,8.48
2023-05-04T04:46:33.812Z,7.77
2023-05-04T04:49:00.385Z,8.32
2023-05-04T04:51:26.895Z,9.68
2023-05-04T04:53:53.217Z,10.53
2023-05-04T04:56:21.728Z,10.13
2023-05-04T04:58:48.661Z,8.35
2023-05-04T05:01:18.838Z,7.32
2023-05-04T05:03:45.383Z,14.00
2023-05-04T05:06:12.138Z,7.65
2023-05-04T05:08:38.555Z,12.25
2023-05-04T05:11:04.954Z,6.57
2023-05-04T05:13:31.661Z,7.15
2023-05-04T05:15:58.007Z,7.65
2023-05-04T05:18:24.802Z,5.30
2023-05-04T05:20:51.139Z,10.00
2023-05-04T05:23:17.468Z,13.38
2023-05-04T05:25:44.178Z,8.32
2023-05-04T05:28:10.766Z,7.43
2023-05-04T05:30:37.112Z,10.45
2023-05-04T05:33:03.820Z,5.20
2023-05-04T05:35:30.268Z,6.78
2023-05-04T05:37:58.250Z,4.78
2023-05-04T05:40:24.660Z,5.55
2023-05-04T05:42:51.073Z,8.02
2023-05-04T05:45:17.528Z,10.60
2023-05-04T05:47:43.920Z,10.13
2023-05-04T05:50:10.560Z,6.72
2023-05-04T05:52:36.903Z,9.80
2023-05-04T05:55:03.283Z,6.50
2023-05-04T05:57:29.840Z,6.13
2023-05-04T05:59:56.692Z,7.63
2023-05-04T06:02:23.282Z,6.40
2023-05-04T06:04:49.872Z,11.52
2023-05-04T06:07:16.396Z,9.75
2023-05-04T06:09:42.738Z,9.93
2023-05-04T06:12:13.384Z,8.88
2023-05-04T06:14:39.996Z,6.80
2023-05-04T06:17:06.403Z,5.60
2023-05-04T06:19:37.027Z,8.80
2023-05-04T06:22:04.094Z,12.93
2023-05-04T06:24:31.187Z,7.10
2023-05-04T06:26:58.241Z,5.55
2023-05-04T06:29:25.062Z,9.50
2023-05-04T06:31:51.750Z,11.88
2023-05-04T06:34:18.453Z,51.58
2023-05-04T06:36:45.245Z,35.50
2023-05-04T06:39:11.663Z,27.95
2023-05-04T06:41:38.123Z,29.73
2023-05-04T06:44:04.661Z,41.13
2023-05-04T06:46:31.527Z,39.95
2023-05-04T06:48:58.521Z,34.13
2023-05-04T06:51:24.835Z,35.83
2023-05-04T06:53:51.183Z,41.80
2023-05-04T06:56:17.595Z,24.35
2023-05-04T06:58:43.972Z,37.35
2023-05-04T07:01:11.254Z,40.55
2023-05-04T07:03:38.853Z,40.60
2023-05-04T07:06:05.313Z,35.08
2023-05-04T07:08:31.698Z,22.30
2023-05-04T07:10:58.290Z,32.10
2023-05-04T07:13:25.131Z,34.17
2023-05-04T07:15:51.538Z,33.65
2023-05-04T07:18:18.064Z,27.20
2023-05-04T07:20:44.577Z,25.80
2023-05-04T07:23:11.299Z,31.70
2023-05-04T07:25:37.642Z,38.15
2023-05-04T07:28:04.282Z,30.73
2023-05-04T07:30:30.726Z,28.33
2023-05-04T07:32:57.090Z,30.52
2023-05-04T07:35:23.572Z,31.17
2023-05-04T07:37:50.675Z,35.45
2023-05-04T07:40:17.149Z,27.90
2023-05-04T07:42:43.530Z,38.00
2023-05-04T07:45:10.152Z,26.83
2023-05-04T07:47:36.972Z,34.33
2023-05-04T07:50:04.317Z,33.78
2023-05-04T07:52:30.886Z,32.03
2023-05-04T07:54:57.320Z,26.73
2023-05-04T07:57:23.976Z,30.13
2023-05-04T07:59:53.365Z,33.25
2023-05-04T08:02:19.778Z,33.72
2023-05-04T08:04:46.325Z,33.03
2023-05-04T08:07:12.922Z,19.70
2023-05-04T08:09:39.227Z,29.17
2023-05-04T08:12:05.794Z,23.55
2023-05-04T08:14:33.474Z,28.65
2023-05-04T08:17:00.609Z,24.88
2023-05-04T08:19:27.054Z,24.38
2023-05-04T08:21:53.731Z,18.92
2023-05-04T08:24:20.079Z,29.13
2023-05-04T08:26:52.592Z,24.38
2023-05-04T08:29:31.705Z,16.98
2023-05-04T08:31:59.705Z,19.92
2023-05-04T08:34:26.922Z,23.13
2023-05-04T08:36:53.254Z,22.38
2023-05-04T08:39:19.647Z,17.77
2023-05-04T08:41:45.980Z,20.13
2023-05-04T08:44:12.628Z,19.65
2023-05-04T08:46:40.204Z,20.63
2023-05-04T08:49:07.057Z,24.13
2023-05-04T08:51:35.415Z,19.90
2023-05-04T08:54:02.528Z,14.73
2023-05-04T08:56:28.924Z,23.33
2023-05-04T08:59:01.639Z,20.08
2023-05-04T09:01:28.346Z,17.92
2023-05-04T09:03:54.996Z,18.02
2023-05-04T09:06:21.462Z,21.27
2023-05-04T09:08:47.818Z,22.17
2023-05-04T09:11:14.172Z,21.70
2023-05-04T09:13:42.629Z,24.15
2023-05-04T09:16:08.956Z,16.30
2023-05-04T09:18:36.761Z,24.23
2023-05-04T09:21:03.158Z,22.25
2023-05-04T09:23:29.678Z,13.23
2023-05-04T09:25:56.592Z,11.45
2023-05-04T09:28:36.104Z,21.45
2023-05-04T09:31:02.817Z,22.42
2023-05-04T09:33:29.310Z,19.95
2023-05-04T09:35:56.943Z,22.10
2023-05-04T09:38:31.416Z,21.10
2023-05-04T09:40:57.768Z,29.60
2023-05-04T09:43:27.140Z,24.70
2023-05-04T09:45:53.542Z,25.58
2023-05-04T09:48:20.490Z,28.45
2023-05-04T09:50:52.916Z,27.15
2023-05-04T09:53:20.471Z,27.73
2023-05-04T09:55:47.749Z,30.02
2023-05-04T09:58:18.336Z,27.15
2023-05-04T10:00:45.467Z,26.25
2023-05-04T10:03:12.205Z,27.42
2023-05-04T10:05:38.845Z,28.63
2023-05-04T10:08:05.684Z,27.30
2023-05-04T10:10:33.737Z,25.35
2023-05-04T10:13:00.087Z,33.30
2023-05-04T10:15:26.718Z,31.17
2023-05-04T10:18:11.753Z,23.67
2023-05-04T10:20:45.948Z,22.13
2023-05-04T10:23:34.562Z,24.42
2023-05-04T10:26:00.863Z,25.75
2023-05-04T10:28:27.175Z,27.55
2023-05-04T10:30:59.897Z,29.50
2023-05-04T10:33:26.360Z,27.50
2023-05-04T10:35:53.100Z,27.52
2023-05-04T10:38:19.667Z,28.80
2023-05-04T10:40:50.880Z,28.88
2023-05-04T10:43:24.187Z,31.50
2023-05-04T10:45:50.690Z,25.90
2023-05-04T10:48:17.191Z,27.20
2023-05-04T10:50:50.410Z,29.30
2023-05-04T10:53:17.437Z,32.15
2023-05-04T10:55:45.082Z,29.20
2023-05-04T10:58:14.940Z,27.92
2023-05-04T11:00:41.873Z,23.48
2023-05-04T11:03:08.599Z,29.42
2023-05-04T11:05:41.111Z,28.80
2023-05-04T11:08:17.232Z,32.17
2023-05-04T11:10:43.609Z,27.52
2023-05-04T11:13:13.294Z,34.72
2023-05-04T11:15:46.719Z,32.45
2023-05-04T11:18:13.373Z,27.38
2023-05-04T11:20:39.918Z,30.58
2023-05-04T11:23:10.136Z,32.45
2023-05-04T11:25:37.568Z,32.42
2023-05-04T11:28:04.106Z,31.80
2023-05-04T11:30:34.526Z,31.00
2023-05-04T11:33:11.782Z,38.28
2023-05-04T11:35:38.394Z,32.88
2023-05-04T11:38:04.829Z,30.15
2023-05-04T11:40:31.350Z,32.55
2023-05-04T11:42:58.202Z,34.15
2023-05-04T11:45:27.024Z,38.72
2023-05-04T11:47:53.683Z,36.67
2023-05-04T11:50:20.928Z,32.42
2023-05-04T11:52:47.842Z,36.22
2023-05-04T11:55:29.585Z,36.90
2023-05-04T11:57:56.711Z,31.98
2023-05-04T12:00:33.602Z,32.30
2023-05-04T12:03:00.794Z,7.07
2023-05-04T12:05:27.339Z,7.72
2023-05-04T12:07:53.709Z,9.35
2023-05-04T12:10:34.724Z,10.32
2023-05-04T12:13:01.661Z,11.70
2023-05-04T12:15:31.765Z,7.70
2023-05-04T12:17:59.637Z,7.38
2023-05-04T12:20:28.777Z,15.85
2023-05-04T12:22:58.251Z,40.35
2023-05-04T12:25:24.741Z,35.45
2023-05-04T12:27:51.269Z,30.48
2023-05-04T12:30:17.851Z,49.40
2023-05-04T12:32:44.610Z,40.55
2023-05-04T12:35:10.963Z,42.67
2023-05-04T12:37:38.002Z,45.65
2023-05-04T12:40:11.256Z,30.65
2023-05-04T12:42:44.668Z,43.47
2023-05-04T12:45:11.382Z,39.25
2023-05-04T12:47:37.778Z,38.58
2023-05-04T12:50:05.206Z,38.80
2023-05-04T12:52:31.592Z,49.97
2023-05-04T12:54:57.986Z,37.70
2023-05-04T12:57:24.342Z,40.13
2023-05-04T12:59:50.647Z,36.83
2023-05-04T13:02:16.979Z,35.70
2023-05-04T13:04:43.829Z,35.15
2023-05-04T13:07:10.519Z,46.35
2023-05-04T13:09:36.918Z,31.33
2023-05-04T13:12:03.400Z,36.28
2023-05-04T13:14:29.786Z,31.98
2023-05-04T13:16:56.156Z,31.58
2023-05-04T13:19:22.562Z,34.60
2023-05-04T13:21:48.886Z,32.47
2023-05-04T13:24:15.270Z,48.70
2023-05-04T13:26:41.668Z,35.58
2023-05-04T13:29:08.053Z,31.30
2023-05-04T13:31:34.416Z,50.78
2023-05-04T13:34:00.773Z,35.65
2023-05-04T13:36:27.301Z,34.47
2023-05-04T13:38:53.609Z,37.72
2023-05-04T13:41:20.649Z,31.00
2023-05-04T13:43:48.041Z,31.23
2023-05-04T13:46:14.498Z,36.92
2023-05-04T13:48:41.032Z,38.42
2023-05-04T13:51:07.380Z,34.30
2023-05-04T13:53:33.769Z,36.83
2023-05-04T13:56:01.261Z,36.20
2023-05-04T13:58:27.635Z,68.95
2023-05-04T14:00:56.145Z,37.60
2023-05-04T14:03:22.714Z,40.38
2023-05-04T14:05:49.054Z,43.72
2023-05-04T14:08:15.394Z,34.97
2023-05-04T14:10:41.797Z,40.78
2023-05-04T14:13:08.341Z,37.58
2023-05-04T14:15:34.670Z,41.22
2023-05-04T14:18:01.166Z,38.30
2023-05-04T14:20:27.585Z,31.23
2023-05-04T14:22:53.934Z,54.53
2023-05-04T14:25:22.097Z,52.72
2023-05-04T14:27:48.700Z,40.70
2023-05-04T14:30:15.157Z,43.95
2023-05-04T14:32:41.663Z,49.65
2023-05-04T14:35:10.040Z,47.03
2023-05-04T14:37:37.867Z,39.28
2023-05-04T14:40:07.469Z,38.45
2023-05-04T14:42:34.305Z,52.42
2023-05-04T14:45:00.741Z,37.95
2023-05-04T14:47:28.315Z,21.60
2023-05-04T14:49:54.778Z,5.53
2023-05-04T14:52:21.317Z,7.47
2023-05-04T14:54:47.633Z,5.05
2023-05-04T14:57:13.941Z,6.75
2023-05-04T14:59:41.826Z,7.80
2023-05-04T15:02:08.309Z,9.52
2023-05-04T15:04:34.942Z,5.35
2023-05-04T15:07:01.461Z,6.82
2023-05-04T15:09:27.931Z,4.97
2023-05-04T15:11:54.363Z,6.00
2023-05-04T15:14:21.121Z,5.63
2023-05-04T15:16:47.472Z,4.43
2023-05-04T15:19:13.797Z,3.70
2023-05-04T15:21:40.400Z,3.70
2023-05-04T15:24:07.320Z,7.57
2023-05-04T15:26:34.670Z,5.38
2023-05-04T15:29:01.113Z,7.45
2023-05-04T15:31:27.460Z,7.38
2023-05-04T15:33:54.060Z,11.32
2023-05-04T15:36:20.451Z,6.03
2023-05-04T15:38:46.806Z,5.25
2023-05-04T15:41:14.182Z,3.67
2023-05-04T15:43:40.620Z,7.13
2023-05-04T15:46:06.994Z,5.43
2023-05-04T15:48:33.294Z,4.65
2023-05-04T15:51:00.055Z,7.13
2023-05-04T15:53:26.965Z,10.00
2023-05-04T15:55:53.274Z,4.70
2023-05-04T15:58:19.601Z,3.60
2023-05-04T16:00:46.126Z,7.07
2023-05-04T16:03:12.604Z,3.42
2023-05-04T16:05:39.045Z,4.85
2023-05-04T16:08:05.373Z,5.45
2023-05-04T16:10:31.804Z,11.45
2023-05-04T16:13:03.911Z,4.22
2023-05-04T16:15:30.981Z,4.75
2023-05-04T16:17:57.428Z,4.95
2023-05-04T16:20:23.815Z,7.20
2023-05-04T16:22:50.135Z,3.67
2023-05-04T16:25:16.461Z,6.70
2023-05-04T16:27:42.769Z,7.45
2023-05-04T16:30:09.493Z,4.45
2023-05-04T16:32:36.203Z,3.83
2023-05-04T16:35:02.558Z,8.30
2023-05-04T16:37:28.915Z,5.28
2023-05-04T16:39:55.452Z,5.72
2023-05-04T16:42:21.940Z,7.18
2023-05-04T16:44:48.349Z,3.78
2023-05-04T16:47:14.650Z,4.18
2023-05-04T16:49:41.086Z,3.97
2023-05-04T16:52:07.486Z,8.60
2023-05-04T16:54:34.192Z,6.97
2023-05-04T16:57:02.042Z,4.75
2023-05-04T16:59:29.247Z,3.85
2023-05-04T17:01:56.424Z,13.57
2023-05-04T17:04:25.163Z,4.38
2023-05-04T17:06:51.507Z,4.15
2023-05-04T17:09:17.816Z,6.47
2023-05-04T17:11:44.276Z,4.28
2023-05-04T17:14:11.002Z,4.03
2023-05-04T17:16:37.377Z,4.82
2023-05-04T17:19:03.803Z,5.72
2023-05-04T17:21:30.158Z,5.50
2023-05-04T17:23:56.509Z,6.13
2023-05-04T17:26:22.829Z,8.80
2023-05-04T17:28:49.257Z,7.97
2023-05-04T17:31:15.684Z,9.25
2023-05-04T17:33:42.090Z,7.43
2023-05-04T17:36:11.144Z,11.13
2023-05-04T17:38:38.052Z,6.63
2023-05-04T17:41:04.668Z,4.43
2023-05-04T17:43:31.060Z,4.25
2023-05-04T17:45:58.695Z,9.05
2023-05-04T17:48:25.193Z,7.72
2023-05-04T17:50:51.634Z,3.60
2023-05-04T17:53:18.016Z,3.47
2023-05-04T17:55:44.426Z,4.50
2023-05-04T17:58:10.953Z,8.73
2023-05-04T18:00:37.353Z,5.20
2023-05-04T18:03:04.039Z,3.33
2023-05-04T18:05:33.646Z,4.60
2023-05-04T18:08:00.055Z,4.90
2023-05-04T18:10:26.630Z,6.43
2023-05-04T18:12:53.216Z,3.90
2023-05-04T18:15:19.803Z,4.57
2023-05-04T18:17:46.333Z,7.43
2023-05-04T18:20:13.250Z,5.88
2023-05-04T18:22:39.892Z,6.93
2023-05-04T18:25:06.786Z,10.48
2023-05-04T18:27:34.822Z,8.60
2023-05-04T18:30:01.397Z,4.82
2023-05-04T18:32:28.085Z,3.40
2023-05-04T18:34:54.718Z,6.55
2023-05-04T18:37:21.654Z,3.25
2023-05-04T18:39:48.055Z,4.68
2023-05-04T18:42:14.493Z,3.78
2023-05-04T18:44:41.301Z,4.45
2023-05-04T18:47:08.937Z,4.43
2023-05-04T18:49:35.280Z,4.07
2023-05-04T18:52:01.733Z,3.65
2023-05-04T18:54:32.262Z,4.70
2023-05-04T18:56:58.952Z,7.78
2023-05-04T18:59:25.677Z,5.65
2023-05-04T19:01:56.046Z,7.40
2023-05-04T19:04:24.411Z,5.47
2023-05-04T19:06:53.497Z,8.00
2023-05-04T19:09:20.171Z,5.75
2023-05-04T19:11:49.250Z,7.45
2023-05-04T19:14:15.619Z,6.32
2023-05-04T19:16:42.293Z,11.63
2023-05-04T19:19:09.048Z,4.05
2023-05-04T19:21:38.601Z,4.82
2023-05-04T19:24:05.148Z,8.05
2023-05-04T19:26:33.789Z,4.50
2023-05-04T19:29:01.260Z,5.00
2023-05-04T19:31:27.908Z,8.32
2023-05-04T19:33:54.388Z,5.82
2023-05-04T19:36:21.271Z,31.27
2023-05-04T19:38:48.081Z,30.55
2023-05-04T19:41:14.872Z,28.23
2023-05-04T19:43:41.410Z,31.08
2023-05-04T19:46:08.204Z,28.70
2023-05-04T19:48:34.919Z,28.50
2023-05-04T19:51:01.300Z,26.70
2023-05-04T19:53:27.729Z,30.95
2023-05-04T19:55:55.463Z,30.20
2023-05-04T19:58:25.851Z,24.65
2023-05-04T20:00:52.925Z,27.35
2023-05-04T20:03:19.369Z,28.65
2023-05-04T20:05:46.557Z,22.67
2023-05-04T20:08:13.096Z,32.30
2023-05-04T20:10:42.099Z,27.17
2023-05-04T20:13:09.987Z,28.13
2023-05-04T20:15:36.690Z,18.67
2023-05-04T20:18:03.184Z,21.95
2023-05-04T20:20:29.545Z,25.73
2023-05-04T20:22:56.472Z,30.92
2023-05-04T20:25:22.993Z,29.45
2023-05-04T20:27:52.118Z,34.40
2023-05-04T20:30:18.738Z,20.00
2023-05-04T20:32:47.800Z,25.80
2023-05-04T20:35:14.295Z,27.65
2023-05-04T20:37:41.721Z,24.67
2023-05-04T20:40:08.632Z,35.30
2023-05-04T20:42:35.227Z,29.63
2023-05-04T20:45:01.675Z,26.20
2023-05-04T20:47:28.647Z,30.98
2023-05-04T20:49:55.126Z,36.58
2023-05-04T20:52:21.796Z,37.70
2023-05-04T20:54:48.295Z,27.98
2023-05-04T20:57:14.725Z,35.65
2023-05-04T20:59:41.145Z,35.63
2023-05-04T21:02:07.942Z,33.15
2023-05-04T21:04:34.403Z,33.88
2023-05-04T21:07:00.983Z,25.98
2023-05-04T21:09:28.058Z,29.42
2023-05-04T21:11:54.694Z,32.65
2023-05-04T21:14:21.114Z,33.80
2023-05-04T21:16:47.507Z,25.60
2023-05-04T21:19:14.125Z,26.08
2023-05-04T21:21:41.320Z,25.65
2023-05-04T21:24:12.286Z,25.70
2023-05-04T21:26:38.933Z,31.48
2023-05-04T21:29:05.542Z,29.08
2023-05-04T21:31:33.368Z,25.65
2023-05-04T21:33:59.870Z,23.92
2023-05-04T21:36:27.535Z,29.00
2023-05-04T21:38:55.359Z,22.30
2023-05-04T21:41:22.544Z,28.60
2023-05-04T21:43:49.269Z,18.25
2023-05-04T21:46:15.872Z,22.35
2023-05-04T21:48:42.447Z,26.85
2023-05-04T21:51:08.921Z,29.50
2023-05-04T21:53:35.528Z,30.42
2023-05-04T21:56:05.684Z,22.08
2023-05-04T21:58:32.129Z,26.08
2023-05-04T22:00:58.556Z,30.50
2023-05-04T22:03:24.998Z,33.22
2023-05-04T22:05:54.047Z,32.50
2023-05-04T22:08:21.496Z,35.78
2023-05-04T22:10:48.703Z,31.60
2023-05-04T22:13:15.153Z,24.95
2023-05-04T22:15:49.852Z,36.30
2023-05-04T22:18:17.017Z,31.70
2023-05-04T22:20:43.607Z,25.45
2023-05-04T22:23:10.106Z,34.38
2023-05-04T22:25:36.667Z,29.73
2023-05-04T22:28:03.072Z,31.27
2023-05-04T22:30:29.492Z,31.98
2023-05-04T22:32:56.166Z,36.42
2023-05-04T22:35:22.703Z,31.42
2023-05-04T22:37:49.764Z,23.90
2023-05-04T22:40:16.457Z,34.80
2023-05-04T22:42:46.211Z,32.25
2023-05-04T22:45:14.163Z,35.83
2023-05-04T22:47:40.979Z,30.40
2023-05-04T22:50:10.707Z,29.45
2023-05-04T22:52:37.746Z,21.52
2023-05-04T22:55:05.545Z,26.02
2023-05-04T22:57:32.155Z,37.25
2023-05-04T22:59:58.691Z,38.33
2023-05-04T23:02:25.279Z,36.45
2023-05-04T23:04:51.801Z,32.47
2023-05-04T23:07:18.207Z,32.50
2023-05-04T23:09:45.357Z,24.45
2023-05-04T23:12:12.429Z,19.95
2023-05-04T23:14:38.950Z,23.27
2023-05-04T23:17:05.423Z,18.98
2023-05-04T23:19:32.410Z,26.65
2023-05-04T23:21:59.081Z,29.45
2023-05-04T23:24:25.754Z,29.08
2023-05-04T23:26:52.449Z,25.75
2023-05-04T23:29:21.702Z,29.05
2023-05-04T23:31:48.137Z,34.65
2023-05-04T23:34:14.508Z,35.55
2023-05-04T23:36:40.885Z,38.25
2023-05-04T23:39:08.459Z,19.45
2023-05-04T23:41:35.258Z,32.42
2023-05-04T23:44:01.952Z,41.75
2023-05-04T23:46:28.455Z,44.03
2023-05-04T23:48:55.066Z,40.92
2023-05-04T23:51:21.500Z,36.00
2023-05-04T23:53:48.245Z,36.53
2023-05-04T23:56:14.855Z,32.25
2023-05-04T23:58:41.526Z,29.10
